createdAt,value
2023-06-16T00:02:25.227Z,18.20
2023-06-16T00:04:51.986Z,18.20
2023-06-16T00:07:21.441Z,18.20
2023-06-16T00:09:48.390Z,18.10
2023-06-16T00:12:15.144Z,18.10
2023-06-16T00:14:41.966Z,18.00
2023-06-16T00:17:09.969Z,18.00
2023-06-16T00:19:36.812Z,17.90
2023-06-16T00:22:05.057Z,17.90
2023-06-16T00:24:32.160Z,17.80
2023-06-16T00:26:58.969Z,17.80
2023-06-16T00:29:28.387Z,17.70
2023-06-16T00:31:56.706Z,17.70
2023-06-16T00:34:23.629Z,17.70
2023-06-16T00:36:50.456Z,17.60
2023-06-16T00:39:17.649Z,17.60
2023-06-16T00:41:44.332Z,17.50
2023-06-16T00:44:11.128Z,17.50
2023-06-16T00:46:37.951Z,17.40
2023-06-16T00:49:04.852Z,17.30
2023-06-16T00:51:31.678Z,17.30
2023-06-16T00:53:58.495Z,17.20
2023-06-16T00:56:27.226Z,17.10
2023-06-16T00:58:54.140Z,17.10
2023-06-16T01:01:20.857Z,17.10
2023-06-16T01:03:48.002Z,17.10
2023-06-16T01:06:14.919Z,17.10
2023-06-16T01:08:41.702Z,17.00
2023-06-16T01:11:08.458Z,16.90
2023-06-16T01:13:35.647Z,16.80
2023-06-16T01:16:02.367Z,16.80
2023-06-16T01:18:29.189Z,16.80
2023-06-16T01:20:55.981Z,16.70
2023-06-16T01:23:26.713Z,16.60
2023-06-16T01:25:54.713Z,16.60
2023-06-16T01:28:22.553Z,16.70
2023-06-16T01:30:51.674Z,16.80
2023-06-16T01:33:18.843Z,16.80
2023-06-16T01:35:46.351Z,16.80
2023-06-16T01:38:13.058Z,16.80
2023-06-16T01:40:39.837Z,16.80
2023-06-16T01:43:06.577Z,16.70
2023-06-16T01:45:33.414Z,16.70
2023-06-16T01:48:00.278Z,16.70
2023-06-16T01:50:27.196Z,16.70
2023-06-16T01:52:53.937Z,16.50
2023-06-16T01:55:20.777Z,16.50
2023-06-16T01:57:48.737Z,16.50
2023-06-16T02:00:15.618Z,16.50
2023-06-16T02:02:42.798Z,16.50
2023-06-16T02:05:11.972Z,16.40
2023-06-16T02:07:40.045Z,16.50
2023-06-16T02:10:06.881Z,16.50
2023-06-16T02:12:33.623Z,16.50
2023-06-16T02:15:00.556Z,16.50
2023-06-16T02:17:28.363Z,16.40
2023-06-16T02:19:56.038Z,16.40
2023-06-16T02:22:22.894Z,16.40
2023-06-16T02:24:49.753Z,16.30
2023-06-16T02:27:19.707Z,16.30
2023-06-16T02:29:47.676Z,16.20
2023-06-16T02:32:15.070Z,16.20
2023-06-16T02:34:44.452Z,16.20
2023-06-16T02:37:12.902Z,16.20
2023-06-16T02:39:39.735Z,16.10
2023-06-16T02:42:06.513Z,16.10
2023-06-16T02:44:34.124Z,16.10
2023-06-16T02:47:02.799Z,16.10
2023-06-16T02:49:29.674Z,16.00
2023-06-16T02:51:57.956Z,16.00
2023-06-16T02:54:25.196Z,16.00
2023-06-16T02:56:52.275Z,16.00
2023-06-16T02:59:24.224Z,15.90
2023-06-16T03:01:51.057Z,15.90
2023-06-16T03:04:21.729Z,15.80
2023-06-16T03:06:58.828Z,15.80
2023-06-16T03:09:33.820Z,15.80
2023-06-16T03:12:01.784Z,15.80
2023-06-16T03:14:33.320Z,15.80
2023-06-16T03:17:12.247Z,15.70
2023-06-16T03:19:40.426Z,15.70
2023-06-16T03:22:08.038Z,15.60
2023-06-16T03:24:42.426Z,15.60
2023-06-16T03:27:09.933Z,15.60
2023-06-16T03:29:44.869Z,15.60
2023-06-16T03:32:11.786Z,15.50
2023-06-16T03:34:39.741Z,15.50
2023-06-16T03:37:06.750Z,15.40
2023-06-16T03:39:37.979Z,15.40
2023-06-16T03:42:04.766Z,15.40
2023-06-16T03:44:31.515Z,15.40
2023-06-16T03:46:58.302Z,15.40
2023-06-16T03:49:25.087Z,15.40
2023-06-16T03:51:52.630Z,15.40
2023-06-16T03:54:21.148Z,15.40
2023-06-16T03:56:47.930Z,15.40
2023-06-16T03:59:14.760Z,15.40
2023-06-16T04:01:42.631Z,15.30
2023-06-16T04:04:10.437Z,15.40
2023-06-16T04:06:37.825Z,15.40
2023-06-16T04:09:05.967Z,15.40
2023-06-16T04:11:33.640Z,15.40
2023-06-16T04:14:00.578Z,15.30
2023-06-16T04:16:27.478Z,15.20
2023-06-16T04:18:56.794Z,15.20
2023-06-16T04:21:24.117Z,15.20
2023-06-16T04:23:51.294Z,15.30
2023-06-16T04:26:19.729Z,15.30
2023-06-16T04:28:54.647Z,15.30
2023-06-16T04:31:23.397Z,15.40
2023-06-16T04:33:50.148Z,15.40
2023-06-16T04:36:18.417Z,15.60
2023-06-16T04:38:45.696Z,15.70
2023-06-16T04:41:12.521Z,15.90
2023-06-16T04:43:39.301Z,15.90
2023-06-16T04:46:06.252Z,16.10
2023-06-16T04:48:33.775Z,16.20
2023-06-16T04:51:00.722Z,16.30
2023-06-16T04:53:28.477Z,16.40
2023-06-16T04:55:55.346Z,16.50
2023-06-16T04:58:22.044Z,16.60
2023-06-16T05:00:48.789Z,16.70
2023-06-16T05:03:15.655Z,16.80
2023-06-16T05:05:42.548Z,17.00
2023-06-16T05:08:09.286Z,17.00
2023-06-16T05:10:36.832Z,17.10
2023-06-16T05:13:03.625Z,17.20
2023-06-16T05:15:30.733Z,17.30
2023-06-16T05:17:58.217Z,17.40
2023-06-16T05:20:25.197Z,17.50
2023-06-16T05:22:52.038Z,17.60
2023-06-16T05:25:18.905Z,17.70
2023-06-16T05:27:45.717Z,17.70
2023-06-16T05:30:12.696Z,17.80
2023-06-16T05:32:39.564Z,17.90
2023-06-16T05:35:08.454Z,18.00
2023-06-16T05:37:36.284Z,18.00
2023-06-16T05:40:04.334Z,18.10
2023-06-16T05:42:32.749Z,18.20
2023-06-16T05:45:00.304Z,18.30
2023-06-16T05:47:27.674Z,18.30
2023-06-16T05:49:58.429Z,18.40
2023-06-16T05:52:25.829Z,18.50
2023-06-16T05:54:52.813Z,18.60
2023-06-16T05:57:27.912Z,18.60
2023-06-16T05:59:54.763Z,18.60
2023-06-16T06:02:21.783Z,18.70
2023-06-16T06:04:49.564Z,18.70
2023-06-16T06:07:16.678Z,18.70
2023-06-16T06:09:43.663Z,18.80
2023-06-16T06:12:11.387Z,18.80
2023-06-16T06:14:39.077Z,18.70
2023-06-16T06:17:05.968Z,18.70
2023-06-16T06:19:32.836Z,18.70
2023-06-16T06:22:00.808Z,18.70
2023-06-16T06:24:27.730Z,18.70
2023-06-16T06:26:55.326Z,18.60
2023-06-16T06:29:22.220Z,18.60
2023-06-16T06:31:49.008Z,18.50
2023-06-16T06:34:15.971Z,18.50
2023-06-16T06:36:43.355Z,18.50
2023-06-16T06:39:10.203Z,18.50
2023-06-16T06:41:37.215Z,18.50
2023-06-16T06:44:12.569Z,18.50
2023-06-16T06:46:59.552Z,18.60
2023-06-16T06:49:26.523Z,18.50
2023-06-16T06:51:53.309Z,18.50
2023-06-16T06:54:20.169Z,18.60
2023-06-16T06:56:46.924Z,18.60
2023-06-16T06:59:13.706Z,18.60
2023-06-16T07:01:40.632Z,18.50
2023-06-16T07:04:07.666Z,18.50
2023-06-16T07:06:34.520Z,18.50
2023-06-16T07:09:01.332Z,18.50
2023-06-16T07:11:28.065Z,18.50
2023-06-16T07:13:54.829Z,18.50
2023-06-16T07:16:21.641Z,18.60
2023-06-16T07:18:48.426Z,18.60
2023-06-16T07:21:15.208Z,18.70
2023-06-16T07:23:42.146Z,18.70
2023-06-16T07:26:08.877Z,18.80
2023-06-16T07:28:35.657Z,18.90
2023-06-16T07:31:02.689Z,18.90
2023-06-16T07:33:29.481Z,19.00
2023-06-16T07:35:56.199Z,19.10
2023-06-16T07:38:23.033Z,19.10
2023-06-16T07:40:49.757Z,19.20
2023-06-16T07:43:16.530Z,19.30
2023-06-16T07:45:43.410Z,19.30
2023-06-16T07:48:11.290Z,19.40
2023-06-16T07:50:38.046Z,19.40
2023-06-16T07:53:04.887Z,19.40
2023-06-16T07:55:31.681Z,19.50
2023-06-16T07:57:58.527Z,19.60
2023-06-16T08:00:25.450Z,19.60
2023-06-16T08:02:52.420Z,19.60
2023-06-16T08:05:19.563Z,19.70
2023-06-16T08:07:46.624Z,19.80
2023-06-16T08:10:15.829Z,19.80
2023-06-16T08:12:43.012Z,19.90
2023-06-16T08:15:09.797Z,20.00
2023-06-16T08:17:37.870Z,20.00
2023-06-16T08:20:05.866Z,20.00
2023-06-16T08:22:32.998Z,20.10
2023-06-16T08:24:59.734Z,20.10
2023-06-16T08:27:26.608Z,20.10
2023-06-16T08:29:53.386Z,20.10
2023-06-16T08:32:20.238Z,20.20
2023-06-16T08:34:46.959Z,20.30
2023-06-16T08:37:25.167Z,20.30
2023-06-16T08:39:56.537Z,20.40
2023-06-16T08:42:23.325Z,20.40
2023-06-16T08:44:50.045Z,20.40
2023-06-16T08:47:17.285Z,20.60
2023-06-16T08:49:44.517Z,20.60
2023-06-16T08:52:11.509Z,20.70
2023-06-16T08:54:38.553Z,20.70
2023-06-16T08:57:05.462Z,20.80
2023-06-16T08:59:32.208Z,20.80
2023-06-16T09:02:00.961Z,20.80
2023-06-16T09:04:30.080Z,20.90
2023-06-16T09:06:57.455Z,21.00
2023-06-16T09:09:24.340Z,21.00
2023-06-16T09:11:51.139Z,21.10
2023-06-16T09:14:18.596Z,21.20
2023-06-16T09:16:48.559Z,21.20
2023-06-16T09:19:17.227Z,21.40
2023-06-16T09:21:48.072Z,21.40
2023-06-16T09:24:18.111Z,21.50
2023-06-16T09:26:44.881Z,21.50
2023-06-16T09:29:11.842Z,21.60
2023-06-16T09:31:38.586Z,21.60
2023-06-16T09:34:06.224Z,21.60
2023-06-16T09:36:33.310Z,21.70
2023-06-16T09:39:00.087Z,21.70
2023-06-16T09:41:26.864Z,21.70
2023-06-16T09:43:54.060Z,21.70
2023-06-16T09:46:21.034Z,21.70
2023-06-16T09:48:48.629Z,21.80
2023-06-16T09:51:15.385Z,21.70
2023-06-16T09:53:42.684Z,21.80
2023-06-16T09:56:09.429Z,21.80
2023-06-16T09:58:42.241Z,21.90
2023-06-16T10:01:10.229Z,22.00
2023-06-16T10:03:39.164Z,22.00
2023-06-16T10:06:06.515Z,22.00
2023-06-16T10:08:34.676Z,21.90
2023-06-16T10:11:01.576Z,22.00
2023-06-16T10:13:28.304Z,22.00
2023-06-16T10:15:55.189Z,22.00
2023-06-16T10:18:22.175Z,22.10
2023-06-16T10:20:49.067Z,22.10
2023-06-16T10:23:16.015Z,22.10
2023-06-16T10:25:42.803Z,22.20
2023-06-16T10:28:12.602Z,22.30
2023-06-16T10:30:39.526Z,22.40
2023-06-16T10:33:06.336Z,22.40
2023-06-16T10:35:39.953Z,22.40
2023-06-16T10:38:08.072Z,22.40
2023-06-16T10:40:37.071Z,22.50
2023-06-16T10:43:10.583Z,22.50
2023-06-16T10:45:40.619Z,22.60
2023-06-16T10:48:12.647Z,22.60
2023-06-16T10:50:39.505Z,22.60
2023-06-16T10:53:06.361Z,22.70
2023-06-16T10:55:37.177Z,22.70
2023-06-16T10:58:04.009Z,22.70
2023-06-16T11:00:31.064Z,22.80
2023-06-16T11:02:57.972Z,22.80
2023-06-16T11:05:25.925Z,23.00
2023-06-16T11:07:52.835Z,23.00
2023-06-16T11:10:20.102Z,23.00
2023-06-16T11:12:47.120Z,23.00
2023-06-16T11:15:13.848Z,23.10
2023-06-16T11:17:40.744Z,23.10
2023-06-16T11:20:07.827Z,23.30
2023-06-16T11:22:34.666Z,23.30
2023-06-16T11:25:01.984Z,23.40
2023-06-16T11:27:28.807Z,23.50
2023-06-16T11:29:55.616Z,23.50
2023-06-16T11:32:22.487Z,23.60
2023-06-16T11:34:49.266Z,23.70
2023-06-16T11:37:16.002Z,23.80
2023-06-16T11:39:42.692Z,23.70
2023-06-16T11:42:09.531Z,23.80
2023-06-16T11:44:36.238Z,23.80
2023-06-16T11:47:03.141Z,23.70
2023-06-16T11:49:34.661Z,23.70
2023-06-16T11:52:02.208Z,23.80
2023-06-16T11:54:28.923Z,23.90
2023-06-16T11:56:56.162Z,24.00
2023-06-16T11:59:24.741Z,23.90
2023-06-16T12:01:51.597Z,23.90
2023-06-16T12:04:18.450Z,23.90
2023-06-16T12:06:46.358Z,24.00
2023-06-16T12:09:14.706Z,24.10
2023-06-16T12:11:47.569Z,24.10
2023-06-16T12:14:14.352Z,24.10
2023-06-16T12:16:41.422Z,24.10
2023-06-16T12:19:08.160Z,24.10
2023-06-16T12:21:35.005Z,24.10
2023-06-16T12:24:02.018Z,24.10
2023-06-16T12:26:28.823Z,24.20
2023-06-16T12:28:56.140Z,24.20
2023-06-16T12:31:22.995Z,24.30
2023-06-16T12:33:49.780Z,24.40
2023-06-16T12:36:16.534Z,24.40
2023-06-16T12:38:43.374Z,24.30
2023-06-16T12:41:10.771Z,24.30
2023-06-16T12:43:37.658Z,24.30
2023-06-16T12:46:04.412Z,24.30
2023-06-16T12:48:31.265Z,24.40
2023-06-16T12:50:58.037Z,24.50
2023-06-16T12:53:25.068Z,24.60
2023-06-16T12:55:51.863Z,24.60
2023-06-16T12:58:19.237Z,24.60
2023-06-16T13:00:46.228Z,24.70
2023-06-16T13:03:15.623Z,24.80
2023-06-16T13:05:42.890Z,24.90
2023-06-16T13:08:09.732Z,24.80
2023-06-16T13:10:37.040Z,24.70
2023-06-16T13:13:03.972Z,24.70
2023-06-16T13:15:31.355Z,24.70
2023-06-16T13:17:58.256Z,24.80
2023-06-16T13:20:25.112Z,24.90
2023-06-16T13:22:51.984Z,25.10
2023-06-16T13:25:18.797Z,25.20
2023-06-16T13:27:45.499Z,25.10
2023-06-16T13:30:12.404Z,25.10
2023-06-16T13:32:39.210Z,25.20
2023-06-16T13:35:06.031Z,25.30
2023-06-16T13:37:32.777Z,25.30
2023-06-16T13:39:59.587Z,25.30
2023-06-16T13:42:26.374Z,25.30
2023-06-16T13:44:53.205Z,25.30
2023-06-16T13:47:19.940Z,25.30
2023-06-16T13:49:47.895Z,25.50
2023-06-16T13:52:14.848Z,25.60
2023-06-16T13:54:41.605Z,25.70
2023-06-16T13:57:08.366Z,25.70
2023-06-16T13:59:35.384Z,25.70
2023-06-16T14:02:02.264Z,25.60
2023-06-16T14:04:29.092Z,25.70
2023-06-16T14:06:55.797Z,25.70
2023-06-16T14:09:22.632Z,25.70
2023-06-16T14:11:49.361Z,25.80
2023-06-16T14:14:16.113Z,25.90
2023-06-16T14:16:42.932Z,26.00
2023-06-16T14:19:09.696Z,26.10
2023-06-16T14:21:36.552Z,26.10
2023-06-16T14:24:03.865Z,26.20
2023-06-16T14:26:30.671Z,26.30
2023-06-16T14:28:57.472Z,26.20
2023-06-16T14:31:24.928Z,26.20
2023-06-16T14:33:54.351Z,26.30
2023-06-16T14:36:21.246Z,26.30
2023-06-16T14:38:48.093Z,26.20
2023-06-16T14:41:14.935Z,26.20
2023-06-16T14:43:41.761Z,26.10
2023-06-16T14:46:08.576Z,26.10
2023-06-16T14:48:35.427Z,26.20
2023-06-16T14:51:02.127Z,26.40
2023-06-16T14:53:28.921Z,26.60
2023-06-16T14:55:55.658Z,26.90
2023-06-16T14:58:24.596Z,27.00
2023-06-16T15:00:52.523Z,27.20
2023-06-16T15:03:19.548Z,27.30
2023-06-16T15:05:46.587Z,27.60
2023-06-16T15:08:13.432Z,27.70
2023-06-16T15:10:40.239Z,27.70
2023-06-16T15:13:07.026Z,27.50
2023-06-16T15:15:33.723Z,27.30
2023-06-16T15:18:00.682Z,27.10
2023-06-16T15:20:27.484Z,27.10
2023-06-16T15:22:54.473Z,27.20
2023-06-16T15:25:23.255Z,27.20
2023-06-16T15:27:59.522Z,27.00
2023-06-16T15:30:34.101Z,26.80
2023-06-16T15:33:01.037Z,26.80
2023-06-16T15:35:27.857Z,26.90
2023-06-16T15:37:54.619Z,27.10
2023-06-16T15:40:21.699Z,27.20
2023-06-16T15:42:48.654Z,27.30
2023-06-16T15:45:15.607Z,27.80
2023-06-16T15:47:42.387Z,28.70
2023-06-16T15:50:09.370Z,29.60
2023-06-16T15:52:36.521Z,30.30
2023-06-16T15:55:03.324Z,30.80
2023-06-16T15:57:30.216Z,31.30
2023-06-16T15:59:57.019Z,31.50
2023-06-16T16:02:23.814Z,31.70
2023-06-16T16:04:52.915Z,32.00
2023-06-16T16:07:19.629Z,32.40
2023-06-16T16:09:46.581Z,32.50
2023-06-16T16:12:13.446Z,32.60
2023-06-16T16:14:40.372Z,32.40
2023-06-16T16:17:07.266Z,32.00
2023-06-16T16:19:36.073Z,31.50
2023-06-16T16:22:02.784Z,31.30
2023-06-16T16:24:29.712Z,30.80
2023-06-16T16:26:56.433Z,30.40
2023-06-16T16:29:28.740Z,30.40
2023-06-16T16:31:55.717Z,30.70
2023-06-16T16:34:22.410Z,31.20
2023-06-16T16:36:49.210Z,31.60
2023-06-16T16:39:16.088Z,32.00
2023-06-16T16:41:43.827Z,32.30
2023-06-16T16:44:10.657Z,32.50
2023-06-16T16:46:37.476Z,32.60
2023-06-16T16:49:04.258Z,32.60
2023-06-16T16:51:39.904Z,32.50
2023-06-16T16:54:06.725Z,32.10
2023-06-16T16:56:33.415Z,31.30
2023-06-16T16:59:00.283Z,30.60
2023-06-16T17:01:27.064Z,30.20
2023-06-16T17:03:53.811Z,30.50
2023-06-16T17:06:20.674Z,30.80
2023-06-16T17:08:47.469Z,31.20
2023-06-16T17:11:14.242Z,31.30
2023-06-16T17:13:41.034Z,31.50
2023-06-16T17:16:07.840Z,31.70
2023-06-16T17:18:34.612Z,31.70
2023-06-16T17:21:01.334Z,31.70
2023-06-16T17:23:28.112Z,31.60
2023-06-16T17:25:54.857Z,31.50
2023-06-16T17:28:21.681Z,31.40
2023-06-16T17:30:48.526Z,31.30
2023-06-16T17:33:15.949Z,31.00
2023-06-16T17:35:42.801Z,30.90
2023-06-16T17:38:09.625Z,30.70
2023-06-16T17:40:36.354Z,30.70
2023-06-16T17:43:03.142Z,30.80
2023-06-16T17:45:30.040Z,30.70
2023-06-16T17:47:57.012Z,30.70
2023-06-16T17:50:27.781Z,30.80
2023-06-16T17:52:55.354Z,30.90
2023-06-16T17:55:22.619Z,30.90
2023-06-16T17:57:49.361Z,30.60
2023-06-16T18:00:17.246Z,30.50
2023-06-16T18:02:44.454Z,30.30
2023-06-16T18:05:11.561Z,30.30
2023-06-16T18:07:39.223Z,30.20
2023-06-16T18:10:06.189Z,29.90
2023-06-16T18:12:33.092Z,29.70
2023-06-16T18:14:59.854Z,29.40
2023-06-16T18:17:27.158Z,29.10
2023-06-16T18:19:53.969Z,29.10
2023-06-16T18:22:20.748Z,28.90
2023-06-16T18:24:47.459Z,28.70
2023-06-16T18:27:14.272Z,28.70
2023-06-16T18:29:41.101Z,28.60
2023-06-16T18:32:08.310Z,28.40
2023-06-16T18:34:35.019Z,28.30
2023-06-16T18:37:01.900Z,28.00
2023-06-16T18:39:34.511Z,27.80
2023-06-16T18:42:01.992Z,27.50
2023-06-16T18:44:28.804Z,27.20
2023-06-16T18:46:55.609Z,27.00
2023-06-16T18:49:22.842Z,26.80
2023-06-16T18:51:49.569Z,26.60
2023-06-16T18:54:16.441Z,26.40
2023-06-16T18:56:43.219Z,26.10
2023-06-16T18:59:09.953Z,25.80
2023-06-16T19:01:36.890Z,25.60
2023-06-16T19:04:03.894Z,25.40
2023-06-16T19:06:30.942Z,25.20
2023-06-16T19:08:57.664Z,25.10
2023-06-16T19:11:24.484Z,24.90
2023-06-16T19:13:51.760Z,24.80
2023-06-16T19:16:18.578Z,24.70
2023-06-16T19:18:45.400Z,24.50
2023-06-16T19:21:12.134Z,24.40
2023-06-16T19:23:39.171Z,24.20
2023-06-16T19:26:06.225Z,24.00
2023-06-16T19:28:33.023Z,23.90
2023-06-16T19:30:59.903Z,23.70
2023-06-16T19:33:26.673Z,23.50
2023-06-16T19:35:53.925Z,23.30
2023-06-16T19:38:22.600Z,23.10
2023-06-16T19:40:50.868Z,23.00
2023-06-16T19:43:17.606Z,22.80
2023-06-16T19:45:44.363Z,22.70
2023-06-16T19:48:11.227Z,22.50
2023-06-16T19:50:38.044Z,22.40
2023-06-16T19:53:04.782Z,22.30
2023-06-16T19:55:44.836Z,22.20
2023-06-16T19:58:15.922Z,22.20
2023-06-16T20:00:42.857Z,22.00
2023-06-16T20:03:09.842Z,21.90
2023-06-16T20:05:37.007Z,21.90
2023-06-16T20:08:05.005Z,21.80
2023-06-16T20:10:33.914Z,21.70
2023-06-16T20:13:01.166Z,21.60
2023-06-16T20:15:27.872Z,21.40
2023-06-16T20:17:54.724Z,21.30
2023-06-16T20:20:21.771Z,21.30
2023-06-16T20:22:48.900Z,21.20
2023-06-16T20:25:18.521Z,21.10
2023-06-16T20:27:45.470Z,21.00
2023-06-16T20:30:12.213Z,20.90
2023-06-16T20:32:39.154Z,20.80
2023-06-16T20:35:06.187Z,20.70
2023-06-16T20:37:33.353Z,20.70
2023-06-16T20:40:00.291Z,20.60
2023-06-16T20:42:28.314Z,20.60
2023-06-16T20:44:55.125Z,20.50
2023-06-16T20:47:22.073Z,20.40
2023-06-16T20:49:51.530Z,20.40
2023-06-16T20:52:18.596Z,20.30
2023-06-16T20:54:45.370Z,20.30
2023-06-16T20:57:12.255Z,20.20
2023-06-16T20:59:39.019Z,20.10
2023-06-16T21:02:07.302Z,20.10
2023-06-16T21:04:34.259Z,20.00
2023-06-16T21:07:03.868Z,20.00
2023-06-16T21:09:30.875Z,19.90
2023-06-16T21:11:57.728Z,19.80
2023-06-16T21:14:24.456Z,19.80
2023-06-16T21:16:51.231Z,19.80
2023-06-16T21:19:23.575Z,19.70
2023-06-16T21:21:53.162Z,19.70
2023-06-16T21:24:19.910Z,19.60
2023-06-16T21:26:46.766Z,19.60
2023-06-16T21:29:13.823Z,19.50
2023-06-16T21:31:40.823Z,19.50
2023-06-16T21:34:07.517Z,19.50
2023-06-16T21:36:34.289Z,19.40
2023-06-16T21:39:05.460Z,19.30
2023-06-16T21:41:32.332Z,19.20
2023-06-16T21:43:59.153Z,19.20
2023-06-16T21:46:26.130Z,19.10
2023-06-16T21:48:53.670Z,19.10
2023-06-16T21:51:20.926Z,19.00
2023-06-16T21:53:47.770Z,19.00
2023-06-16T21:56:14.746Z,18.90
2023-06-16T21:58:41.509Z,18.90
2023-06-16T22:01:09.960Z,18.80
2023-06-16T22:03:37.071Z,18.80
2023-06-16T22:06:04.777Z,18.80
2023-06-16T22:08:31.531Z,18.70
2023-06-16T22:10:58.363Z,18.70
2023-06-16T22:13:27.121Z,18.70
2023-06-16T22:15:53.973Z,18.60
2023-06-16T22:18:24.521Z,18.60
2023-06-16T22:20:51.617Z,18.60
2023-06-16T22:23:18.446Z,18.50
2023-06-16T22:25:45.655Z,18.40
2023-06-16T22:28:13.178Z,18.40
2023-06-16T22:30:40.075Z,18.40
2023-06-16T22:33:07.193Z,18.40
2023-06-16T22:35:34.053Z,18.50
2023-06-16T22:38:00.912Z,18.40
2023-06-16T22:40:27.788Z,18.40
2023-06-16T22:42:54.667Z,18.40
2023-06-16T22:45:21.590Z,18.40
2023-06-16T22:47:49.928Z,18.40
2023-06-16T22:50:17.050Z,18.40
2023-06-16T22:52:45.163Z,18.30
2023-06-16T22:55:12.042Z,18.30
2023-06-16T22:57:38.770Z,18.20
2023-06-16T23:00:07.317Z,18.10
2023-06-16T23:02:34.177Z,18.00
2023-06-16T23:05:01.007Z,18.00
2023-06-16T23:07:27.717Z,18.00
2023-06-16T23:09:54.617Z,18.00
2023-06-16T23:12:21.588Z,17.90
2023-06-16T23:14:48.413Z,17.90
2023-06-16T23:17:15.126Z,17.80
2023-06-16T23:19:42.008Z,17.80
2023-06-16T23:22:08.925Z,17.80
2023-06-16T23:24:35.786Z,17.80
2023-06-16T23:27:02.628Z,17.70
2023-06-16T23:29:29.449Z,17.70
2023-06-16T23:31:56.187Z,17.70
2023-06-16T23:34:24.204Z,17.70
2023-06-16T23:36:51.351Z,17.60
2023-06-16T23:39:18.228Z,17.60
2023-06-16T23:41:44.970Z,17.50
2023-06-16T23:44:11.790Z,17.40
2023-06-16T23:46:38.577Z,17.40
2023-06-16T23:49:05.453Z,17.40
2023-06-16T23:51:32.174Z,17.30
2023-06-16T23:53:59.023Z,17.30
2023-06-16T23:56:25.774Z,17.20
2023-06-16T23:58:52.629Z,17.20
